Orbital elements of FENGYUN 1C DEB
| Launched | 9 May 1999 |
| Flight ended | – |
| Launch site | Taiyuan Space Center, PRC |
| Owner | People's Republic of China |
| NORAD ID | 31009 |
| Date fetched |
Epoch osculation |
Inc. [°] |
Ecc. | RA asc node [hr] |
Arg Peri. [°] |
Mean anom [°] |
Mean motion [rev/day] |
Abs. mag |
| Date fetched |
Epoch osculation |
Inc. [°] |
Ecc. | RA asc node [hr] |
Arg Peri. [°] |
Mean anom [°] |
Mean motion [rev/day] |
Abs. mag |
| 2026 May 05 17:57 | 2026 May 05 10:55:58 | 98.9097 | 0.00554 | 8.1665 | 197.6795 | 316.7844 | 14.00510 | – |
| 2026 May 04 17:57 | 2026 Apr 30 10:54:54 | 98.9093 | 0.00551 | 7.8415 | 211.5781 | 316.7844 | 14.00510 | – |
| 2026 May 03 17:57 | 2026 Apr 30 10:54:54 | 98.9093 | 0.00551 | 7.8415 | 211.5781 | 316.7844 | 14.00510 | – |
| 2026 May 02 17:57 | 2026 Apr 30 10:54:54 | 98.9093 | 0.00551 | 7.8415 | 211.5781 | 316.7844 | 14.00510 | – |
| 2026 May 01 17:56 | 2026 Apr 30 10:54:54 | 98.9093 | 0.00551 | 7.8415 | 211.5781 | 316.7844 | 14.00510 | – |
| 2026 Apr 30 17:56 | 2026 Apr 30 10:54:54 | 98.9093 | 0.00551 | 7.8415 | 211.5781 | 316.7844 | 14.00510 | – |
| 2026 Apr 29 17:57 | 2026 Apr 24 12:27:52 | 98.9084 | 0.00549 | 7.4557 | 228.1601 | 316.7844 | 14.00510 | – |
| 2026 Apr 28 17:56 | 2026 Apr 24 12:27:52 | 98.9084 | 0.00549 | 7.4557 | 228.1601 | 316.7844 | 14.00510 | – |
| 2026 Apr 27 17:58 | 2026 Apr 24 12:27:52 | 98.9084 | 0.00549 | 7.4557 | 228.1601 | 316.7844 | 14.00510 | – |
| 2026 Apr 26 17:58 | 2026 Apr 24 12:27:52 | 98.9084 | 0.00549 | 7.4557 | 228.1601 | 316.7844 | 14.00510 | – |
| 2026 Apr 25 17:58 | 2026 Apr 24 12:27:52 | 98.9084 | 0.00549 | 7.4557 | 228.1601 | 316.7844 | 14.00510 | – |
| 2026 Apr 24 17:59 | 2026 Apr 24 12:27:52 | 98.9084 | 0.00549 | 7.4557 | 228.1601 | 316.7844 | 14.00510 | – |
| 2026 Apr 23 17:57 | 2026 Apr 17 22:28:13 | 98.9076 | 0.00547 | 7.0279 | 246.7122 | 316.7844 | 14.00510 | – |
| 2026 Apr 22 17:57 | 2026 Apr 17 22:28:13 | 98.9076 | 0.00547 | 7.0279 | 246.7122 | 316.7844 | 14.00510 | – |
| 2026 Apr 21 17:57 | 2026 Apr 17 22:28:13 | 98.9076 | 0.00547 | 7.0279 | 246.7122 | 316.7844 | 14.00510 | – |
| 2026 Apr 20 17:57 | 2026 Apr 17 22:28:13 | 98.9076 | 0.00547 | 7.0279 | 246.7122 | 316.7844 | 14.00510 | – |
| 2026 Apr 19 17:58 | 2026 Apr 17 22:28:13 | 98.9076 | 0.00547 | 7.0279 | 246.7122 | 316.7844 | 14.00510 | – |
| 2026 Apr 18 17:56 | 2026 Apr 12 22:13:49 | 98.9070 | 0.00546 | 6.7024 | 260.8422 | 316.7844 | 14.00510 | – |
| 2026 Apr 16 17:57 | 2026 Apr 12 22:13:49 | 98.9070 | 0.00546 | 6.7024 | 260.8422 | 316.7844 | 14.00510 | – |
| 2026 Apr 14 17:57 | 2026 Apr 12 22:13:49 | 98.9070 | 0.00546 | 6.7024 | 260.8422 | 316.7844 | 14.00510 | – |
| 2026 Apr 13 17:57 | 2026 Apr 12 22:13:49 | 98.9070 | 0.00546 | 6.7024 | 260.8422 | 316.7844 | 14.00510 | – |
| 2026 Apr 12 17:57 | 2026 Apr 08 10:48:43 | 98.9064 | 0.00546 | 6.4116 | 273.4802 | 316.7844 | 14.00510 | – |
| 2026 Apr 11 17:57 | 2026 Apr 08 10:48:43 | 98.9064 | 0.00546 | 6.4116 | 273.4802 | 316.7844 | 14.00510 | – |
| 2026 Apr 10 17:58 | 2026 Apr 08 10:48:43 | 98.9064 | 0.00546 | 6.4116 | 273.4802 | 316.7844 | 14.00510 | – |
| 2026 Apr 09 18:01 | 2026 Apr 08 10:48:43 | 98.9064 | 0.00546 | 6.4116 | 273.4802 | 316.7844 | 14.00510 | – |
| 2026 Apr 08 17:57 | 2026 Apr 08 10:48:43 | 98.9064 | 0.00546 | 6.4116 | 273.4802 | 316.7844 | 14.00510 | – |